Time;durP1;ratioP1;P1;durP2;ratioP2;P2;SDS_P1;SDS_P2;PMS_P1;PMS_P2;Temp;Humidity;BMP_temperature;BMP_pressure;BME280_temperature;BME280_humidity;BME280_pressure;Samples;Min_cycle;Max_cycle;Signal;HPM_P1;HPM_P2
2022/03/06 00:00:07;;;;;;;;;;;;;;;;;;348602;28;775;-75
2022/03/06 00:00:17;;;;;;;;;;;;;;;;;;348547;28;1000;-75
2022/03/06 00:00:27;;;;;;;;;;;;;;;;;;348546;28;858;-75
2022/03/06 00:00:39;;;;;;;;;;;;;;;;;;348556;28;921;-76
2022/03/06 00:00:49;;;;;;;;;;;;;;;;;;348603;28;1035;-75
2022/03/06 00:01:00;;;;;;;;;;;;;;;;;;349021;28;1649;-75
2022/03/06 00:01:10;;;;;;;;;;;;;;;;;;349893;28;984;-75
2022/03/06 00:01:21;;;;;;;;;;;;;;;;;;349906;28;901;-75
2022/03/06 00:01:31;;;;;;;;;;;;;;;;;;349970;28;925;-75
2022/03/06 00:01:41;;;;;;;;;;;;;;;;;;349986;28;991;-75
2022/03/06 00:01:51;;;;;;;;;;;;;;;;;;349998;28;944;-75
2022/03/06 00:02:02;;;;;;;;;;;;;;;;;;349730;28;1882;-75
2022/03/06 00:02:12;;;;;;;;;;;;;;;;;;348542;28;1690;-75
2022/03/06 00:02:22;;;;;;;;;;;;;;;;;;348587;28;795;-75
2022/03/06 00:02:33;;;;;;;;;;;;;;;;;;348519;28;1247;-75
2022/03/06 00:02:43;;;;;;;;;;;;;;;;;;348537;28;921;-75
2022/03/06 00:02:53;;;;;;;;;;;;;;;;;;348596;28;992;-75
2022/03/06 00:03:04;;;;;;;;;;;;;;;;;;348519;28;1018;-75
2022/03/06 00:03:15;;;;;;;;;;;;;;;;;;348376;28;1024;-75
2022/03/06 00:03:25;;;;;;;;;;;;;;;;;;348364;28;957;-75
2022/03/06 00:03:35;;;;;;;;;;;;;;;;;;348450;28;977;-75
2022/03/06 00:03:45;;;;;;;;;;;;;;;;;;348395;28;980;-75
2022/03/06 00:03:55;;;;;;;;;;;;;;;;;;348465;28;842;-75
2022/03/06 00:04:06;;;;;;;;;;;;;;;;;;348857;28;1489;-75
2022/03/06 00:04:16;;;;;;;;;;;;;;;;;;348519;28;940;-76
2022/03/06 00:04:26;;;;;;;;;;;;;;;;;;348450;28;969;-75
2022/03/06 00:04:36;;;;;;;;;;;;;;;;;;348910;28;1617;-75
2022/03/06 00:04:47;;;;;;;;;;;;;;;;;;348564;28;921;-75
2022/03/06 00:04:57;;;;;;;;;;;;;;;;;;348564;28;953;-76
2022/03/06 00:05:07;;;;;;;;;;;;;;;;;;348614;28;775;-75
2022/03/06 00:05:18;;;;;;;;;;;;;;;;;;348450;28;961;-75
2022/03/06 00:05:28;;;;;;;;;;;;;;;;;;349227;28;1483;-75
2022/03/06 00:05:38;;;;;;;;;;;;;;;;;;349948;28;885;-75
2022/03/06 00:05:48;;;;;;;;;;;;;;;;;;349895;28;869;-76
2022/03/06 00:05:59;;;;;;;;;;;;;;;;;;349990;28;948;-76
2022/03/06 00:06:09;;;;;;;;;;;;;;;;;;350003;28;874;-75
2022/03/06 00:06:19;;;;;;;;;;;;;;;;;;349950;28;868;-76
2022/03/06 00:06:30;;;;;;;;;;;;;;;;;;349924;28;920;-75
2022/03/06 00:06:40;;;;;;;;;;;;;;;;;;349952;28;1023;-76
2022/03/06 00:06:50;;;;;;;;;;;;;;;;;;349916;28;933;-76
2022/03/06 00:07:00;;;;;;;;;;;;;;;;;;349926;28;1027;-76
2022/03/06 00:07:11;;;;;;;;;;;;;;;;;;349922;28;955;-75
2022/03/06 00:07:21;;;;;;;;;;;;;;;;;;349953;28;917;-75
2022/03/06 00:07:31;;;;;;;;;;;;;;;;;;349869;28;932;-75
2022/03/06 00:07:41;;;;;;;;;;;;;;;;;;349937;28;992;-76
2022/03/06 00:07:53;;;;;;;;;;;;;;;;;;349978;28;937;-76
2022/03/06 00:08:04;;;;;;;;;;;;;;;;;;350000;28;810;-75
2022/03/06 00:08:14;;;;;;;;;;;;;;;;;;349905;28;937;-76
2022/03/06 00:08:24;;;;;;;;;;;;;;;;;;349959;28;876;-75
2022/03/06 00:08:35;;;;;;;;;;;;;;;;;;349947;28;910;-75
2022/03/06 00:08:45;;;;;;;;;;;;;;;;;;349923;28;1015;-75
2022/03/06 00:08:55;;;;;;;;;;;;;;;;;;349951;28;889;-76
2022/03/06 00:09:05;;;;;;;;;;;;;;;;;;349417;28;1605;-75
2022/03/06 00:09:15;;;;;;;;;;;;;;;;;;348592;28;980;-75
2022/03/06 00:09:26;;;;;;;;;;;;;;;;;;348559;28;826;-76
2022/03/06 00:09:36;;;;;;;;;;;;;;;;;;348498;28;909;-76
2022/03/06 00:09:46;;;;;;;;;;;;;;;;;;349675;28;1328;-75
2022/03/06 00:09:56;;;;;;;;;;;;;;;;;;349956;28;873;-75
2022/03/06 00:10:07;;;;;;;;;;;;;;;;;;349969;28;1067;-75
2022/03/06 00:10:17;;;;;;;;;;;;;;;;;;349965;28;767;-75
2022/03/06 00:10:28;;;;;;;;;;;;;;;;;;349952;28;913;-76
2022/03/06 00:10:38;;;;;;;;;;;;;;;;;;349941;28;929;-76
2022/03/06 00:10:48;;;;;;;;;;;;;;;;;;349968;28;826;-76
2022/03/06 00:10:59;;;;;;;;;;;;;;;;;;349793;28;1068;-75
2022/03/06 00:11:09;;;;;;;;;;;;;;;;;;349946;28;889;-76
2022/03/06 00:11:19;;;;;;;;;;;;;;;;;;349993;28;814;-76
2022/03/06 00:11:30;;;;;;;;;;;;;;;;;;349962;28;846;-75
2022/03/06 00:11:40;;;;;;;;;;;;;;;;;;349839;28;885;-76
2022/03/06 00:11:52;;;;;;;;;;;;;;;;;;349915;28;913;-76
2022/03/06 00:12:02;;;;;;;;;;;;;;;;;;349887;28;933;-76
2022/03/06 00:12:12;;;;;;;;;;;;;;;;;;349914;28;992;-76
2022/03/06 00:12:22;;;;;;;;;;;;;;;;;;349947;28;1121;-76
2022/03/06 00:12:32;;;;;;;;;;;;;;;;;;349929;28;909;-76
2022/03/06 00:12:43;;;;;;;;;;;;;;;;;;349998;28;917;-76
2022/03/06 00:12:53;;;;;;;;;;;;;;;;;;349910;28;792;-75
2022/03/06 00:13:04;;;;;;;;;;;;;;;;;;349970;28;790;-76
2022/03/06 00:13:14;;;;;;;;;;;;;;;;;;349949;28;840;-75
2022/03/06 00:13:25;;;;;;;;;;;;;;;;;;349888;28;936;-76
2022/03/06 00:13:36;;;;;;;;;;;;;;;;;;349946;28;865;-75
2022/03/06 00:13:46;;;;;;;;;;;;;;;;;;349919;28;984;-75
2022/03/06 00:13:56;;;;;;;;;;;;;;;;;;349914;28;944;-76
2022/03/06 00:14:07;;;;;;;;;;;;;;;;;;349805;28;1003;-76
2022/03/06 00:14:17;;;;;;;;;;;;;;;;;;349865;28;972;-76
2022/03/06 00:14:27;;;;;;;;;;;;;;;;;;349817;28;964;-76
2022/03/06 00:14:38;;;;;;;;;;;;;;;;;;349856;28;917;-75
2022/03/06 00:14:48;;;;;;;;;;;;;;;;;;349888;28;901;-76
2022/03/06 00:14:58;;;;;;;;;;;;;;;;;;349821;28;798;-76
2022/03/06 00:15:09;;;;;;;;;;;;;;;;;;349873;28;786;-76
2022/03/06 00:15:21;;;;;;;;;;;;;;;;;;349859;28;916;-75
2022/03/06 00:15:31;;;;;;;;;;;;;;;;;;349736;28;1052;-76
2022/03/06 00:15:42;;;;;;;;;;;;;;;;;;349833;28;874;-76
2022/03/06 00:15:52;;;;;;;;;;;;;;;;;;349791;28;877;-76
2022/03/06 00:16:03;;;;;;;;;;;;;;;;;;349917;28;913;-76
2022/03/06 00:16:13;;;;;;;;;;;;;;;;;;349947;28;1150;-76
2022/03/06 00:16:23;;;;;;;;;;;;;;;;;;349889;28;981;-76
2022/03/06 00:16:33;;;;;;;;;;;;;;;;;;349950;28;865;-76
2022/03/06 00:16:44;;;;;;;;;;;;;;;;;;349938;28;909;-76
2022/03/06 00:16:54;;;;;;;;;;;;;;;;;;349932;28;873;-76
2022/03/06 00:17:04;;;;;;;;;;;;;;;;;;349763;28;1640;-75
2022/03/06 00:17:14;;;;;;;;;;;;;;;;;;348605;28;783;-75
2022/03/06 00:17:25;;;;;;;;;;;;;;;;;;348542;28;968;-76
2022/03/06 00:17:35;;;;;;;;;;;;;;;;;;348566;28;909;-75
2022/03/06 00:17:45;;;;;;;;;;;;;;;;;;348557;28;1016;-75
2022/03/06 00:17:55;;;;;;;;;;;;;;;;;;348477;28;850;-75
2022/03/06 00:18:06;;;;;;;;;;;;;;;;;;348587;28;992;-75
2022/03/06 00:18:16;;;;;;;;;;;;;;;;;;348624;28;905;-76
2022/03/06 00:18:26;;;;;;;;;;;;;;;;;;348535;28;956;-76
2022/03/06 00:18:37;;;;;;;;;;;;;;;;;;348531;28;941;-75
2022/03/06 00:18:47;;;;;;;;;;;;;;;;;;348686;28;1518;-75
2022/03/06 00:18:57;;;;;;;;;;;;;;;;;;348669;28;1678;-75
2022/03/06 00:19:07;;;;;;;;;;;;;;;;;;349501;28;1739;-75
2022/03/06 00:19:18;;;;;;;;;;;;;;;;;;349973;28;892;-75
2022/03/06 00:19:28;;;;;;;;;;;;;;;;;;349890;28;1020;-75
2022/03/06 00:19:38;;;;;;;;;;;;;;;;;;349928;28;928;-75
2022/03/06 00:19:49;;;;;;;;;;;;;;;;;;349963;28;992;-76
2022/03/06 00:20:01;;;;;;;;;;;;;;;;;;349838;28;984;-75
2022/03/06 00:20:11;;;;;;;;;;;;;;;;;;350004;28;1616;-76
2022/03/06 00:20:22;;;;;;;;;;;;;;;;;;348447;28;979;-76
2022/03/06 00:20:32;;;;;;;;;;;;;;;;;;348545;28;845;-75
2022/03/06 00:20:43;;;;;;;;;;;;;;;;;;348565;28;822;-75
2022/03/06 00:20:54;;;;;;;;;;;;;;;;;;348523;28;866;-75
2022/03/06 00:21:05;;;;;;;;;;;;;;;;;;348551;28;893;-75
2022/03/06 00:21:15;;;;;;;;;;;;;;;;;;348580;28;885;-75
2022/03/06 00:21:25;;;;;;;;;;;;;;;;;;348549;28;922;-76
2022/03/06 00:21:36;;;;;;;;;;;;;;;;;;348518;28;929;-76
2022/03/06 00:21:46;;;;;;;;;;;;;;;;;;348575;28;806;-76
2022/03/06 00:21:56;;;;;;;;;;;;;;;;;;348578;28;873;-76
2022/03/06 00:22:07;;;;;;;;;;;;;;;;;;348488;28;1910;-76
2022/03/06 00:22:17;;;;;;;;;;;;;;;;;;348601;28;794;-76
2022/03/06 00:22:27;;;;;;;;;;;;;;;;;;348623;28;913;-76
2022/03/06 00:22:37;;;;;;;;;;;;;;;;;;348518;28;913;-76
2022/03/06 00:22:48;;;;;;;;;;;;;;;;;;348559;28;1004;-76
2022/03/06 00:22:58;;;;;;;;;;;;;;;;;;348607;28;774;-75
2022/03/06 00:23:09;;;;;;;;;;;;;;;;;;348502;28;1112;-76
2022/03/06 00:23:20;;;;;;;;;;;;;;;;;;348580;28;988;-76
2022/03/06 00:23:30;;;;;;;;;;;;;;;;;;348571;28;1116;-75
2022/03/06 00:23:41;;;;;;;;;;;;;;;;;;348534;28;929;-76
2022/03/06 00:23:51;;;;;;;;;;;;;;;;;;346581;28;2259;-75
2022/03/06 00:24:02;;;;;;;;;;;;;;;;;;348605;28;837;-75
2022/03/06 00:24:12;;;;;;;;;;;;;;;;;;348475;28;913;-76
2022/03/06 00:24:22;;;;;;;;;;;;;;;;;;348563;28;1675;-75
2022/03/06 00:24:32;;;;;;;;;;;;;;;;;;348707;28;1773;-75
2022/03/06 00:24:43;;;;;;;;;;;;;;;;;;348835;28;1407;-75
2022/03/06 00:24:56;;;;;;;;;;;;;;;;;;348405;28;985;-75
2022/03/06 00:25:06;;;;;;;;;;;;;;;;;;348442;28;913;-75
2022/03/06 00:25:17;;;;;;;;;;;;;;;;;;348157;28;1201;-75
2022/03/06 00:25:27;;;;;;;;;;;;;;;;;;348648;28;1499;-75
2022/03/06 00:25:37;;;;;;;;;;;;;;;;;;348315;28;1015;-74
2022/03/06 00:25:48;;;;;;;;;;;;;;;;;;348244;28;1027;-75
2022/03/06 00:25:58;;;;;;;;;;;;;;;;;;348336;28;1020;-74
2022/03/06 00:26:08;;;;;;;;;;;;;;;;;;348311;28;932;-75
2022/03/06 00:26:18;;;;;;;;;;;;;;;;;;348241;28;818;-75
2022/03/06 00:26:29;;;;;;;;;;;;;;;;;;348324;28;945;-74
2022/03/06 00:26:39;;;;;;;;;;;;;;;;;;348387;28;865;-75
2022/03/06 00:26:49;;;;;;;;;;;;;;;;;;348299;28;1004;-75
2022/03/06 00:27:00;;;;;;;;;;;;;;;;;;348399;28;862;-75
2022/03/06 00:27:10;;;;;;;;;;;;;;;;;;348367;28;1008;-75
2022/03/06 00:27:20;;;;;;;;;;;;;;;;;;348427;28;980;-75
2022/03/06 00:27:30;;;;;;;;;;;;;;;;;;348450;28;802;-75
2022/03/06 00:27:40;;;;;;;;;;;;;;;;;;348430;28;933;-75
2022/03/06 00:27:51;;;;;;;;;;;;;;;;;;348387;28;980;-75
2022/03/06 00:28:01;;;;;;;;;;;;;;;;;;348478;28;933;-75
2022/03/06 00:28:12;;;;;;;;;;;;;;;;;;348446;28;1116;-75
2022/03/06 00:28:22;;;;;;;;;;;;;;;;;;348527;28;860;-75
2022/03/06 00:28:32;;;;;;;;;;;;;;;;;;348402;28;821;-75
2022/03/06 00:28:43;;;;;;;;;;;;;;;;;;348382;28;989;-75
2022/03/06 00:28:53;;;;;;;;;;;;;;;;;;348318;28;980;-75
2022/03/06 00:29:03;;;;;;;;;;;;;;;;;;348233;28;961;-75
2022/03/06 00:29:14;;;;;;;;;;;;;;;;;;348297;28;830;-75
2022/03/06 00:29:24;;;;;;;;;;;;;;;;;;348237;28;1155;-75
2022/03/06 00:29:34;;;;;;;;;;;;;;;;;;348293;28;917;-75
2022/03/06 00:29:45;;;;;;;;;;;;;;;;;;348240;28;877;-75
2022/03/06 00:29:55;;;;;;;;;;;;;;;;;;348286;28;803;-75
2022/03/06 00:30:06;;;;;;;;;;;;;;;;;;348330;28;972;-75
2022/03/06 00:30:16;;;;;;;;;;;;;;;;;;348271;28;873;-75
2022/03/06 00:30:26;;;;;;;;;;;;;;;;;;348325;28;960;-74
2022/03/06 00:30:37;;;;;;;;;;;;;;;;;;348276;28;921;-75
2022/03/06 00:30:47;;;;;;;;;;;;;;;;;;348272;28;921;-75
2022/03/06 00:30:58;;;;;;;;;;;;;;;;;;348275;28;937;-75
2022/03/06 00:31:08;;;;;;;;;;;;;;;;;;348384;28;822;-75
2022/03/06 00:31:18;;;;;;;;;;;;;;;;;;348333;28;866;-75
2022/03/06 00:31:29;;;;;;;;;;;;;;;;;;348245;28;1010;-75
2022/03/06 00:31:39;;;;;;;;;;;;;;;;;;348298;28;925;-75
2022/03/06 00:31:49;;;;;;;;;;;;;;;;;;348265;28;937;-75
2022/03/06 00:32:00;;;;;;;;;;;;;;;;;;348263;28;984;-75
2022/03/06 00:32:10;;;;;;;;;;;;;;;;;;348279;28;964;-75
2022/03/06 00:32:20;;;;;;;;;;;;;;;;;;348301;28;979;-75
2022/03/06 00:32:31;;;;;;;;;;;;;;;;;;348200;28;916;-75
2022/03/06 00:32:41;;;;;;;;;;;;;;;;;;348289;28;984;-75
2022/03/06 00:32:51;;;;;;;;;;;;;;;;;;348255;28;909;-75
2022/03/06 00:33:03;;;;;;;;;;;;;;;;;;348293;28;858;-75
2022/03/06 00:33:14;;;;;;;;;;;;;;;;;;348348;28;961;-75
2022/03/06 00:33:24;;;;;;;;;;;;;;;;;;348621;28;840;-75
2022/03/06 00:33:34;;;;;;;;;;;;;;;;;;348559;28;757;-75
2022/03/06 00:33:45;;;;;;;;;;;;;;;;;;348597;28;976;-75
2022/03/06 00:33:55;;;;;;;;;;;;;;;;;;348537;28;873;-75
2022/03/06 00:34:05;;;;;;;;;;;;;;;;;;348561;28;932;-75
2022/03/06 00:34:15;;;;;;;;;;;;;;;;;;348555;28;948;-75
2022/03/06 00:34:26;;;;;;;;;;;;;;;;;;348555;28;999;-75
2022/03/06 00:34:36;;;;;;;;;;;;;;;;;;348531;28;865;-75
2022/03/06 00:34:48;;;;;;;;;;;;;;;;;;348612;28;913;-75
2022/03/06 00:34:58;;;;;;;;;;;;;;;;;;348777;28;1703;-75
2022/03/06 00:35:09;;;;;;;;;;;;;;;;;;348731;28;1015;-75
2022/03/06 00:35:20;;;;;;;;;;;;;;;;;;348628;28;988;-75
2022/03/06 00:35:31;;;;;;;;;;;;;;;;;;348597;28;1150;-75
2022/03/06 00:35:41;;;;;;;;;;;;;;;;;;348683;28;945;-75
2022/03/06 00:35:51;;;;;;;;;;;;;;;;;;348736;28;874;-75
2022/03/06 00:36:01;;;;;;;;;;;;;;;;;;348580;28;1003;-75
2022/03/06 00:36:12;;;;;;;;;;;;;;;;;;348679;28;1037;-75
2022/03/06 00:36:22;;;;;;;;;;;;;;;;;;348621;28;1028;-75
2022/03/06 00:36:32;;;;;;;;;;;;;;;;;;348699;28;866;-75
2022/03/06 00:36:42;;;;;;;;;;;;;;;;;;348669;28;889;-75
2022/03/06 00:36:52;;;;;;;;;;;;;;;;;;348721;28;818;-75
2022/03/06 00:37:05;;;;;;;;;;;;;;;;;;348674;28;1012;-75
2022/03/06 00:37:15;;;;;;;;;;;;;;;;;;348680;28;933;-75
2022/03/06 00:37:26;;;;;;;;;;;;;;;;;;348687;28;968;-75
2022/03/06 00:37:36;;;;;;;;;;;;;;;;;;348641;28;997;-75
2022/03/06 00:37:46;;;;;;;;;;;;;;;;;;348728;28;928;-75
2022/03/06 00:37:56;;;;;;;;;;;;;;;;;;348711;28;933;-75
2022/03/06 00:38:07;;;;;;;;;;;;;;;;;;348675;28;928;-75
2022/03/06 00:38:17;;;;;;;;;;;;;;;;;;348712;28;917;-75
2022/03/06 00:38:28;;;;;;;;;;;;;;;;;;348600;28;1028;-75
2022/03/06 00:38:38;;;;;;;;;;;;;;;;;;348589;28;988;-75
2022/03/06 00:38:48;;;;;;;;;;;;;;;;;;350864;28;1229;-75
2022/03/06 00:38:58;;;;;;;;;;;;;;;;;;351317;28;1019;-75
2022/03/06 00:39:09;;;;;;;;;;;;;;;;;;350381;28;1394;-75
2022/03/06 00:39:19;;;;;;;;;;;;;;;;;;350209;28;1007;-75
2022/03/06 00:39:29;;;;;;;;;;;;;;;;;;350065;28;1251;-75
2022/03/06 00:39:40;;;;;;;;;;;;;;;;;;350057;28;846;-75
2022/03/06 00:39:50;;;;;;;;;;;;;;;;;;350163;28;928;-75
2022/03/06 00:40:00;;;;;;;;;;;;;;;;;;350160;28;979;-75
2022/03/06 00:40:11;;;;;;;;;;;;;;;;;;350025;28;1016;-75
2022/03/06 00:40:21;;;;;;;;;;;;;;;;;;350142;28;931;-75
2022/03/06 00:40:31;;;;;;;;;;;;;;;;;;350120;28;972;-75
2022/03/06 00:40:43;;;;;;;;;;;;;;;;;;350083;28;1019;-75
2022/03/06 00:40:53;;;;;;;;;;;;;;;;;;350074;28;1000;-75
2022/03/06 00:41:04;;;;;;;;;;;;;;;;;;350114;28;932;-75
2022/03/06 00:41:15;;;;;;;;;;;;;;;;;;350029;28;1027;-75
2022/03/06 00:41:25;;;;;;;;;;;;;;;;;;350173;28;999;-75
2022/03/06 00:41:35;;;;;;;;;;;;;;;;;;350214;28;987;-75
2022/03/06 00:41:46;;;;;;;;;;;;;;;;;;350175;28;829;-75
2022/03/06 00:41:56;;;;;;;;;;;;;;;;;;350248;28;856;-75
2022/03/06 00:42:06;;;;;;;;;;;;;;;;;;350048;28;1973;-75
2022/03/06 00:42:17;;;;;;;;;;;;;;;;;;350093;28;917;-75
2022/03/06 00:42:27;;;;;;;;;;;;;;;;;;350068;28;939;-75
2022/03/06 00:42:37;;;;;;;;;;;;;;;;;;350093;28;919;-75
2022/03/06 00:42:47;;;;;;;;;;;;;;;;;;350050;28;884;-75
2022/03/06 00:42:58;;;;;;;;;;;;;;;;;;350034;28;980;-75
2022/03/06 00:43:08;;;;;;;;;;;;;;;;;;350056;28;921;-75
2022/03/06 00:43:18;;;;;;;;;;;;;;;;;;350081;28;809;-75
2022/03/06 00:43:28;;;;;;;;;;;;;;;;;;350041;28;987;-75
2022/03/06 00:43:39;;;;;;;;;;;;;;;;;;350139;28;821;-75
2022/03/06 00:43:49;;;;;;;;;;;;;;;;;;350086;28;999;-75
2022/03/06 00:43:59;;;;;;;;;;;;;;;;;;350091;28;770;-75
2022/03/06 00:44:09;;;;;;;;;;;;;;;;;;350047;28;937;-75
2022/03/06 00:44:21;;;;;;;;;;;;;;;;;;349995;28;975;-75
2022/03/06 00:44:31;;;;;;;;;;;;;;;;;;350082;28;976;-75
2022/03/06 00:44:41;;;;;;;;;;;;;;;;;;350077;28;916;-75
2022/03/06 00:44:53;;;;;;;;;;;;;;;;;;350000;28;800;-75
2022/03/06 00:45:04;;;;;;;;;;;;;;;;;;350019;28;992;-75
2022/03/06 00:45:14;;;;;;;;;;;;;;;;;;350041;28;968;-75
2022/03/06 00:45:25;;;;;;;;;;;;;;;;;;349175;28;1555;-74
2022/03/06 00:45:35;;;;;;;;;;;;;;;;;;348875;28;893;-75
2022/03/06 00:45:45;;;;;;;;;;;;;;;;;;348788;28;785;-75
2022/03/06 00:45:55;;;;;;;;;;;;;;;;;;348803;28;977;-75
2022/03/06 00:46:06;;;;;;;;;;;;;;;;;;348854;28;929;-75
2022/03/06 00:46:16;;;;;;;;;;;;;;;;;;348810;28;936;-75
2022/03/06 00:46:26;;;;;;;;;;;;;;;;;;348871;28;980;-75
2022/03/06 00:46:36;;;;;;;;;;;;;;;;;;348811;28;967;-75
2022/03/06 00:46:47;;;;;;;;;;;;;;;;;;348818;28;956;-75
2022/03/06 00:46:57;;;;;;;;;;;;;;;;;;348787;28;1120;-75
2022/03/06 00:47:08;;;;;;;;;;;;;;;;;;348771;28;997;-75
2022/03/06 00:47:18;;;;;;;;;;;;;;;;;;348676;28;1059;-75
2022/03/06 00:47:28;;;;;;;;;;;;;;;;;;348866;28;1100;-75
2022/03/06 00:47:38;;;;;;;;;;;;;;;;;;348811;28;952;-75
2022/03/06 00:47:49;;;;;;;;;;;;;;;;;;348861;28;782;-75
2022/03/06 00:47:59;;;;;;;;;;;;;;;;;;348795;28;952;-75
2022/03/06 00:48:09;;;;;;;;;;;;;;;;;;348871;28;801;-75
2022/03/06 00:48:19;;;;;;;;;;;;;;;;;;348759;28;877;-75
2022/03/06 00:48:30;;;;;;;;;;;;;;;;;;348693;28;968;-75
2022/03/06 00:48:40;;;;;;;;;;;;;;;;;;348659;28;802;-75
2022/03/06 00:48:50;;;;;;;;;;;;;;;;;;348690;28;782;-75
2022/03/06 00:49:01;;;;;;;;;;;;;;;;;;348679;28;929;-75
2022/03/06 00:49:12;;;;;;;;;;;;;;;;;;348637;28;948;-75
2022/03/06 00:49:22;;;;;;;;;;;;;;;;;;348599;28;956;-75
2022/03/06 00:49:33;;;;;;;;;;;;;;;;;;348696;28;987;-75
2022/03/06 00:49:43;;;;;;;;;;;;;;;;;;348672;28;979;-75
2022/03/06 00:49:53;;;;;;;;;;;;;;;;;;348675;28;1019;-75
2022/03/06 00:50:04;;;;;;;;;;;;;;;;;;348620;28;917;-75
2022/03/06 00:50:14;;;;;;;;;;;;;;;;;;348660;28;1047;-75
2022/03/06 00:50:24;;;;;;;;;;;;;;;;;;348696;28;771;-75
2022/03/06 00:50:35;;;;;;;;;;;;;;;;;;348692;28;925;-75
2022/03/06 00:50:45;;;;;;;;;;;;;;;;;;348680;28;913;-75
2022/03/06 00:50:56;;;;;;;;;;;;;;;;;;349067;28;1566;-75
2022/03/06 00:51:06;;;;;;;;;;;;;;;;;;348671;28;1768;-75
2022/03/06 00:51:17;;;;;;;;;;;;;;;;;;348644;28;917;-75
2022/03/06 00:51:27;;;;;;;;;;;;;;;;;;348646;28;849;-75
2022/03/06 00:51:38;;;;;;;;;;;;;;;;;;348667;28;866;-75
2022/03/06 00:51:48;;;;;;;;;;;;;;;;;;348675;28;996;-75
2022/03/06 00:51:58;;;;;;;;;;;;;;;;;;348671;28;786;-75
2022/03/06 00:52:08;;;;;;;;;;;;;;;;;;348617;28;987;-75
2022/03/06 00:52:19;;;;;;;;;;;;;;;;;;348663;28;932;-75
2022/03/06 00:52:29;;;;;;;;;;;;;;;;;;348703;28;909;-75
2022/03/06 00:52:39;;;;;;;;;;;;;;;;;;348573;28;987;-75
2022/03/06 00:52:52;;;;;;;;;;;;;;;;;;348724;28;869;-75
2022/03/06 00:53:03;;;;;;;;;;;;;;;;;;348647;28;988;-75
2022/03/06 00:53:13;;;;;;;;;;;;;;;;;;348589;28;956;-75
2022/03/06 00:53:24;;;;;;;;;;;;;;;;;;348650;28;857;-75
2022/03/06 00:53:34;;;;;;;;;;;;;;;;;;348715;28;761;-75
2022/03/06 00:53:44;;;;;;;;;;;;;;;;;;348638;28;1030;-75
2022/03/06 00:53:54;;;;;;;;;;;;;;;;;;348709;28;845;-75
2022/03/06 00:54:05;;;;;;;;;;;;;;;;;;348676;28;921;-75
2022/03/06 00:54:15;;;;;;;;;;;;;;;;;;348641;28;929;-75
2022/03/06 00:54:25;;;;;;;;;;;;;;;;;;348624;28;981;-75
2022/03/06 00:54:35;;;;;;;;;;;;;;;;;;348716;28;932;-75
2022/03/06 00:54:45;;;;;;;;;;;;;;;;;;348657;28;846;-75
2022/03/06 00:54:56;;;;;;;;;;;;;;;;;;348670;28;905;-75
2022/03/06 00:55:07;;;;;;;;;;;;;;;;;;348694;28;880;-76
2022/03/06 00:55:17;;;;;;;;;;;;;;;;;;348597;28;1000;-75
2022/03/06 00:55:27;;;;;;;;;;;;;;;;;;348642;28;884;-75
2022/03/06 00:55:37;;;;;;;;;;;;;;;;;;348653;28;782;-75
2022/03/06 00:55:48;;;;;;;;;;;;;;;;;;348644;28;936;-75
2022/03/06 00:55:58;;;;;;;;;;;;;;;;;;348702;28;981;-75
2022/03/06 00:56:09;;;;;;;;;;;;;;;;;;348686;28;861;-75
2022/03/06 00:56:19;;;;;;;;;;;;;;;;;;348604;28;929;-75
2022/03/06 00:56:29;;;;;;;;;;;;;;;;;;348654;28;983;-75
2022/03/06 00:56:40;;;;;;;;;;;;;;;;;;348681;28;933;-75
2022/03/06 00:56:50;;;;;;;;;;;;;;;;;;348637;28;866;-75
2022/03/06 00:57:00;;;;;;;;;;;;;;;;;;348629;28;1123;-75
2022/03/06 00:57:10;;;;;;;;;;;;;;;;;;348633;28;1165;-75
2022/03/06 00:57:21;;;;;;;;;;;;;;;;;;348628;28;790;-75
2022/03/06 00:57:31;;;;;;;;;;;;;;;;;;348613;28;806;-75
2022/03/06 00:57:41;;;;;;;;;;;;;;;;;;348685;28;925;-75
2022/03/06 00:57:51;;;;;;;;;;;;;;;;;;348648;28;1027;-74
2022/03/06 00:58:05;;;;;;;;;;;;;;;;;;348712;28;936;-75
2022/03/06 00:58:15;;;;;;;;;;;;;;;;;;348655;28;985;-75
2022/03/06 00:58:25;;;;;;;;;;;;;;;;;;348605;28;928;-75
2022/03/06 00:58:37;;;;;;;;;;;;;;;;;;348712;28;897;-75
2022/03/06 00:58:48;;;;;;;;;;;;;;;;;;348641;28;1011;-75
2022/03/06 00:58:58;;;;;;;;;;;;;;;;;;348627;28;948;-75
2022/03/06 00:59:08;;;;;;;;;;;;;;;;;;348410;28;1440;-75
2022/03/06 00:59:18;;;;;;;;;;;;;;;;;;348537;28;1258;-75
2022/03/06 00:59:33;;;;;;;;;;;;;;;;;;348432;28;968;-75
2022/03/06 00:59:43;;;;;;;;;;;;;;;;;;348609;28;817;-75
2022/03/06 00:59:53;;;;;;;;;;;;;;;;;;348557;28;988;-75
2022/03/06 01:00:05;;;;;;;;;;;;;;;;;;348804;28;1566;-75
2022/03/06 01:00:16;;;;;;;;;;;;;;;;;;350004;28;1561;-75
2022/03/06 01:00:26;;;;;;;;;;;;;;;;;;349931;28;1759;-75
2022/03/06 01:00:39;;;;;;;;;;;;;;;;;;350026;28;968;-75
2022/03/06 01:00:50;;;;;;;;;;;;;;;;;;350056;28;991;-75
2022/03/06 01:01:00;;;;;;;;;;;;;;;;;;349944;28;908;-75
2022/03/06 01:01:10;;;;;;;;;;;;;;;;;;348747;28;996;-75
2022/03/06 01:01:20;;;;;;;;;;;;;;;;;;348902;28;928;-75
2022/03/06 01:01:31;;;;;;;;;;;;;;;;;;348767;28;810;-75
2022/03/06 01:01:41;;;;;;;;;;;;;;;;;;348728;28;917;-75
2022/03/06 01:01:52;;;;;;;;;;;;;;;;;;348863;28;921;-75
2022/03/06 01:02:03;;;;;;;;;;;;;;;;;;348755;28;1910;-75
2022/03/06 01:02:13;;;;;;;;;;;;;;;;;;348795;28;988;-75
2022/03/06 01:02:24;;;;;;;;;;;;;;;;;;348816;28;971;-75
2022/03/06 01:02:34;;;;;;;;;;;;;;;;;;348779;28;981;-75
2022/03/06 01:02:44;;;;;;;;;;;;;;;;;;348736;28;1234;-75
2022/03/06 01:02:54;;;;;;;;;;;;;;;;;;348844;28;941;-75
2022/03/06 01:03:06;;;;;;;;;;;;;;;;;;348842;28;944;-75
2022/03/06 01:03:18;;;;;;;;;;;;;;;;;;348771;28;874;-75
2022/03/06 01:03:28;;;;;;;;;;;;;;;;;;348757;28;1043;-75
2022/03/06 01:03:40;;;;;;;;;;;;;;;;;;349115;28;1495;-75
2022/03/06 01:03:50;;;;;;;;;;;;;;;;;;349418;28;1701;-74
2022/03/06 01:04:00;;;;;;;;;;;;;;;;;;350227;28;857;-75
2022/03/06 01:04:10;;;;;;;;;;;;;;;;;;350157;28;869;-76
2022/03/06 01:04:21;;;;;;;;;;;;;;;;;;350217;28;980;-75
2022/03/06 01:04:31;;;;;;;;;;;;;;;;;;350205;28;912;-75
2022/03/06 01:04:41;;;;;;;;;;;;;;;;;;350130;28;909;-75
2022/03/06 01:04:51;;;;;;;;;;;;;;;;;;350194;28;920;-75
2022/03/06 01:05:02;;;;;;;;;;;;;;;;;;350180;28;1083;-75
2022/03/06 01:05:13;;;;;;;;;;;;;;;;;;350103;28;1023;-75
2022/03/06 01:05:23;;;;;;;;;;;;;;;;;;350221;28;790;-75
2022/03/06 01:05:34;;;;;;;;;;;;;;;;;;350207;28;838;-75
2022/03/06 01:05:44;;;;;;;;;;;;;;;;;;349878;28;1621;-75
2022/03/06 01:05:55;;;;;;;;;;;;;;;;;;348796;28;928;-75
2022/03/06 01:06:05;;;;;;;;;;;;;;;;;;348820;28;976;-75
2022/03/06 01:06:15;;;;;;;;;;;;;;;;;;348796;28;923;-75
2022/03/06 01:06:25;;;;;;;;;;;;;;;;;;348837;28;932;-75
2022/03/06 01:06:36;;;;;;;;;;;;;;;;;;348794;28;841;-75
2022/03/06 01:06:47;;;;;;;;;;;;;;;;;;348759;28;829;-75
2022/03/06 01:06:57;;;;;;;;;;;;;;;;;;348775;28;1026;-75
2022/03/06 01:07:07;;;;;;;;;;;;;;;;;;348767;28;1062;-75
2022/03/06 01:07:17;;;;;;;;;;;;;;;;;;348789;28;905;-75
2022/03/06 01:07:28;;;;;;;;;;;;;;;;;;348739;28;949;-75
2022/03/06 01:07:38;;;;;;;;;;;;;;;;;;348817;28;794;-75
2022/03/06 01:07:48;;;;;;;;;;;;;;;;;;350058;28;1617;-75
2022/03/06 01:07:59;;;;;;;;;;;;;;;;;;350182;28;865;-75
2022/03/06 01:08:09;;;;;;;;;;;;;;;;;;350139;28;908;-75
2022/03/06 01:08:19;;;;;;;;;;;;;;;;;;350171;28;932;-75
2022/03/06 01:08:29;;;;;;;;;;;;;;;;;;350176;28;940;-75
2022/03/06 01:08:40;;;;;;;;;;;;;;;;;;350192;28;843;-75
2022/03/06 01:08:50;;;;;;;;;;;;;;;;;;350122;28;963;-75
2022/03/06 01:09:00;;;;;;;;;;;;;;;;;;350134;28;916;-75
2022/03/06 01:09:12;;;;;;;;;;;;;;;;;;350210;28;1004;-75
2022/03/06 01:09:22;;;;;;;;;;;;;;;;;;350187;28;875;-75
2022/03/06 01:09:33;;;;;;;;;;;;;;;;;;350089;28;1019;-76
2022/03/06 01:09:43;;;;;;;;;;;;;;;;;;350101;28;1285;-75
2022/03/06 01:09:53;;;;;;;;;;;;;;;;;;350124;28;880;-75
2022/03/06 01:10:04;;;;;;;;;;;;;;;;;;350196;28;893;-75
2022/03/06 01:10:14;;;;;;;;;;;;;;;;;;350124;28;975;-75
2022/03/06 01:10:25;;;;;;;;;;;;;;;;;;350184;28;933;-75
2022/03/06 01:10:36;;;;;;;;;;;;;;;;;;350211;28;817;-75
2022/03/06 01:10:50;;;;;;;;;;;;;;;;;;350111;28;915;-74
2022/03/06 01:11:02;;;;;;;;;;;;;;;;;;350137;28;782;-76
2022/03/06 01:11:12;;;;;;;;;;;;;;;;;;350214;28;878;-76
2022/03/06 01:11:22;;;;;;;;;;;;;;;;;;350193;28;891;-75
2022/03/06 01:11:36;;;;;;;;;;;;;;;;;;350186;28;771;-75
2022/03/06 01:11:46;;;;;;;;;;;;;;;;;;350011;28;1154;-76
2022/03/06 01:11:56;;;;;;;;;;;;;;;;;;350066;28;1115;-75
2022/03/06 01:12:07;;;;;;;;;;;;;;;;;;350163;28;869;-76
2022/03/06 01:12:17;;;;;;;;;;;;;;;;;;350145;28;817;-76
2022/03/06 01:12:27;;;;;;;;;;;;;;;;;;350151;28;960;-75
2022/03/06 01:12:38;;;;;;;;;;;;;;;;;;350028;28;1141;-76
2022/03/06 01:12:48;;;;;;;;;;;;;;;;;;350126;28;961;-75
2022/03/06 01:12:58;;;;;;;;;;;;;;;;;;350077;28;1270;-75
2022/03/06 01:13:09;;;;;;;;;;;;;;;;;;350207;28;937;-75
2022/03/06 01:13:20;;;;;;;;;;;;;;;;;;350201;28;824;-75
2022/03/06 01:13:30;;;;;;;;;;;;;;;;;;350187;28;956;-76
2022/03/06 01:13:41;;;;;;;;;;;;;;;;;;350195;28;916;-75
2022/03/06 01:13:51;;;;;;;;;;;;;;;;;;350172;28;889;-76
2022/03/06 01:14:02;;;;;;;;;;;;;;;;;;350162;28;929;-75
2022/03/06 01:14:12;;;;;;;;;;;;;;;;;;350204;28;888;-76
2022/03/06 01:14:22;;;;;;;;;;;;;;;;;;350169;28;798;-75
2022/03/06 01:14:32;;;;;;;;;;;;;;;;;;350185;28;787;-76
2022/03/06 01:14:43;;;;;;;;;;;;;;;;;;350185;28;941;-75
2022/03/06 01:14:53;;;;;;;;;;;;;;;;;;350168;28;782;-76